Date,TemperatureHighF,TemperatureAvgF,TemperatureLowF,DewpointHighF,DewpointAvgF,DewpointLowF,HumidityHigh,HumidityAvg,HumidityLow,PressureMaxIn,PressureMinIn,WindSpeedMaxMPH,WindSpeedAvgMPH,GustSpeedMaxMPH,PrecipitationSumIn
2014-1-1,21.9,16.0,11.5,12.0,7.5,4.0,86,70,53,30.38,30.20,14,2,18,0.00
2014-1-2,15.5,7.4,-2.0,13.0,4.7,-5.0,91,89,86,30.36,29.84,16,4,23,0.00
2014-1-3,7.6,1.6,-5.6,3.0,-4.1,-12.0,88,78,60,30.41,29.75,13,4,22,0.00
2014-1-4,22.2,7.9,-9.6,8.0,-3.2,-14.0,87,63,33,30.50,30.31,16,3,22,0.00
2014-1-5,40.3,27.5,12.2,40.0,19.8,8.0,98,75,43,30.35,29.93,12,2,18,0.25
2014-1-6,54.8,39.3,20.4,55.0,37.6,13.0,100,93,73,29.91,29.29,13,5,26,0.70
2014-1-7,20.2,6.1,1.9,13.0,-5.6,-12.0,76,59,45,30.19,29.47,17,8,27,0.00
2014-1-8,15.3,7.6,-0.1,3.0,-1.0,-8.0,81,68,56,30.48,30.20,11,4,15,0.00
2014-1-9,25.3,14.2,9.1,9.0,6.2,3.0,83,71,44,30.65,30.44,16,2,17,0.00
2014-1-10,33.4,24.3,9.4,33.0,22.4,6.0,99,92,78,30.59,30.28,6,1,9,0.00
2014-1-11,55.9,48.9,33.6,56.0,48.8,33.0,100,99,97,30.27,29.26,12,3,25,0.65
2014-1-12,48.7,37.3,31.7,47.0,30.7,25.0,95,77,67,29.95,29.26,17,7,29,0.13
2014-1-13,49.4,37.1,27.4,37.0,29.2,24.0,88,74,50,30.10,29.88,9,2,15,0.00
2014-1-14,44.6,42.4,38.5,43.0,40.3,37.0,99,93,79,29.87,29.62,7,2,15,0.72
2014-1-15,44.2,34.3,27.7,37.0,32.6,27.0,99,93,73,29.99,29.75,7,1,12,0.01
2014-1-17,39.7,36.7,32.9,28.0,25.9,23.0,81,66,51,29.94,29.90,10,3,10,0.01
2014-1-19,28.1,25.4,23.5,23.0,21.4,20.0,94,85,78,29.66,29.52,8,4,20,0.00
2014-1-20,36.9,28.0,15.9,28.0,21.1,5.0,92,76,61,29.86,29.49,15,6,22,0.06
2014-1-21,15.5,9.1,5.2,4.0,-1.2,-7.0,86,64,47,30.02,29.86,13,2,16,0.00
2014-1-22,11.3,4.8,-1.3,1.0,-5.9,-9.0,83,63,46,29.91,29.70,15,4,19,0.00
2014-1-23,15.2,5.1,-3.2,0.0,-5.8,-10.0,74,62,41,30.16,29.91,11,4,18,0.00
2014-1-24,12.6,5.7,-1.2,-2.0,-5.5,-9.0,74,61,40,30.26,30.04,15,4,18,0.00
2014-1-25,29.7,19.3,8.9,21.0,12.2,-2.0,94,75,57,30.03,29.34,10,4,20,0.00
2014-1-26,17.5,12.4,6.5,15.0,1.7,-6.0,92,63,44,29.85,29.35,14,5,32,0.00
2014-1-27,37.2,24.3,12.2,34.0,16.1,-1.0,92,73,40,29.97,29.56,18,4,29,0.05
2014-1-28,13.4,8.8,3.4,-1.0,-7.0,-13.0,62,50,38,30.30,29.98,11,3,20,0.00
2014-1-29,20.6,12.8,5.8,0.0,-4.7,-8.0,65,47,29,30.23,29.98,13,2,18,0.00
2014-1-30,25.9,14.4,3.0,9.0,1.8,-6.0,81,59,40,30.44,30.17,8,1,11,0.00
2014-1-31,35.6,27.2,14.5,22.0,16.4,9.0,93,65,43,30.21,30.03,12,3,20,0.00
2014-2-1,42.6,33.0,23.3,31.0,23.1,18.0,92,68,48,30.34,30.02,7,1,10,0.00
2014-2-2,45.8,36.8,31.8,38.0,34.5,30.0,98,91,67,30.06,29.86,8,2,14,0.08
2014-2-3,32.7,27.1,17.8,31.0,24.1,16.0,96,89,69,30.28,30.07,4,1,9,0.00
2014-2-4,32.4,21.9,11.3,22.0,17.3,10.0,94,83,63,30.46,30.29,7,0,9,0.06
2014-2-5,24.8,22.2,20.1,22.0,20.1,18.0,94,91,74,30.30,29.65,10,2,19,0.00
2014-2-6,26.6,15.9,8.0,19.0,9.4,3.0,95,77,46,30.26,29.96,7,2,10,0.00
2014-2-7,26.3,15.8,5.9,11.0,6.5,2.0,86,68,49,30.26,30.16,13,3,20,0.00
2014-2-8,24.7,17.1,7.9,6.0,2.2,-2.0,80,53,37,30.28,30.13,8,3,15,0.00
2014-2-9,27.9,20.3,12.1,20.0,12.1,5.0,93,72,55,30.17,29.93,5,1,9,0.00
2014-2-10,22.0,15.6,4.1,17.0,9.4,1.0,93,77,54,30.21,29.90,10,3,21,0.00
2014-2-11,21.2,8.1,-3.4,5.0,-0.4,-7.0,90,71,44,30.45,30.21,9,2,16,0.00
2014-2-12,25.8,12.2,-2.3,7.0,-3.0,-8.0,83,55,25,30.57,30.41,7,1,11,0.00
2014-2-13,30.2,23.1,13.7,30.0,21.2,7.0,98,92,76,30.41,29.05,13,4,27,0.00
2014-2-14,31.6,27.6,22.4,31.0,24.1,20.0,98,87,74,29.74,28.88,23,7,36,0.00
2014-2-15,29.2,24.2,17.7,25.0,22.0,16.0,95,91,75,29.85,29.54,8,2,18,0.00
2014-2-16,27.6,20.2,15.6,24.0,10.3,5.0,94,66,45,29.97,29.54,14,6,28,0.00
2014-2-17,24.7,13.7,1.8,4.0,-4.0,-7.0,66,47,28,30.38,29.98,14,4,22,0.00
2014-2-18,24.8,15.6,0.9,24.0,9.3,-8.0,95,78,44,30.36,29.96,7,2,13,0.00
2014-2-19,31.7,23.5,10.2,28.0,21.0,8.0,98,91,70,30.12,29.76,8,2,11,0.00
2014-2-20,43.1,34.7,27.2,32.0,28.3,24.0,98,80,50,30.21,29.88,9,2,13,0.57
2014-2-21,36.8,33.3,31.1,37.0,33.0,31.0,99,99,97,30.13,29.68,13,3,20,0.58
2014-2-22,47.3,37.0,29.4,33.0,27.3,23.0,99,72,39,29.96,29.84,10,2,20,0.03
2014-2-23,44.6,38.4,31.6,28.0,25.3,22.0,73,60,47,29.98,29.76,7,2,12,0.00
2014-2-24,36.8,25.7,17.4,26.0,11.6,6.0,81,56,44,29.93,29.74,17,7,26,0.00
2014-2-25,22.7,17.1,12.6,10.0,5.7,3.0,72,61,48,29.97,29.88,11,5,22,0.00
2014-2-26,24.3,13.0,0.7,9.0,0.6,-9.0,84,60,32,29.93,29.77,17,3,28,0.00
2014-2-27,23.3,12.0,0.3,12.0,-0.4,-8.0,88,59,36,29.93,29.60,15,4,24,0.00
2014-2-28,20.2,8.3,-0.8,-6.0,-9.6,-14.0,65,47,24,30.45,29.94,11,3,20,0.00
2014-3-1,31.2,18.1,-0.5,17.0,2.8,-11.0,67,53,32,30.46,30.11,9,1,17,0.00
2014-3-2,34.8,28.5,22.5,24.0,18.4,12.0,90,67,51,30.10,29.96,9,3,15,0.00
2014-3-3,22.1,13.8,2.2,13.0,0.5,-7.0,78,57,37,30.29,29.98,10,3,18,0.00
2014-3-4,24.3,13.0,-3.9,6.0,-2.4,-9.0,79,53,30,30.40,30.27,5,1,11,0.00
2014-3-5,23.3,18.0,9.1,18.0,12.4,3.0,92,79,58,30.50,30.25,4,1,9,0.00
2014-3-6,28.3,13.6,-2.1,2.0,-7.4,-13.0,77,43,16,30.64,30.50,5,1,11,0.00
2014-3-7,38.3,22.5,1.7,21.0,8.3,-6.0,77,57,33,30.52,29.97,11,1,11,0.00
2014-3-8,48.8,35.0,21.0,27.0,23.5,15.0,92,65,41,29.96,29.72,11,3,15,0.00
2014-3-9,36.1,29.3,22.7,25.0,12.6,8.0,79,51,32,29.92,29.84,15,4,19,0.00
2014-3-10,40.2,31.4,23.6,29.0,21.0,10.0,89,66,52,29.88,29.61,7,2,12,0.00
2014-3-11,52.0,40.3,32.0,34.0,29.7,27.0,92,69,39,29.72,29.50,10,3,18,0.00
2014-3-12,40.5,36.5,33.3,35.0,32.1,28.0,98,85,72,29.72,29.03,8,2,18,0.68
2014-3-13,33.2,14.7,8.8,33.0,8.7,-3.0,98,78,54,29.95,29.02,25,8,28,0.01
2014-3-14,34.6,20.7,5.2,22.0,8.6,-3.0,77,61,39,30.19,29.92,11,4,17,0.00
2014-3-15,49.4,38.8,30.6,36.0,29.6,19.0,97,71,49,29.91,29.69,18,5,26,0.01
2014-3-16,30.6,23.7,17.2,18.0,8.1,2.0,83,53,33,30.19,29.88,17,5,24,0.00
2014-3-17,30.4,18.3,10.4,3.0,-2.1,-7.0,67,42,25,30.18,30.05,7,1,10,0.00
2014-3-18,39.5,23.3,10.3,17.0,4.5,-3.0,75,47,23,30.36,30.17,6,1,10,0.00
2014-3-19,39.2,28.8,17.4,29.0,21.6,15.0,95,76,49,30.38,29.98,10,3,18,0.00
2014-3-20,43.0,35.9,29.9,38.0,30.8,24.0,98,83,58,29.98,29.63,15,4,26,0.45
2014-3-21,35.6,31.7,25.9,25.0,22.5,20.0,77,69,57,30.03,29.73,21,7,24,0.00
2014-3-22,48.9,33.1,19.2,37.0,24.0,17.0,91,71,49,30.06,29.68,21,4,26,0.02
2014-3-23,35.2,30.0,19.2,23.0,15.0,3.0,74,55,36,30.05,29.91,12,6,20,0.00
2014-3-24,26.9,18.1,9.0,6.0,-0.3,-3.0,62,46,29,30.15,30.06,14,4,20,0.00
2014-3-25,32.4,22.4,8.9,15.0,9.0,4.0,82,58,41,30.15,29.93,7,1,15,0.00
2014-3-26,29.0,24.7,16.7,17.0,9.5,-2.0,71,54,37,30.04,29.66,24,7,34,0.00
2014-3-27,38.9,25.7,11.4,15.0,4.6,-2.0,62,42,27,30.35,30.04,11,3,21,0.00
2014-3-28,46.3,39.0,30.0,46.0,33.8,15.0,98,82,53,30.24,29.95,11,4,17,0.16
2014-3-29,47.4,41.1,34.8,46.0,38.3,34.0,99,90,71,30.24,29.95,12,4,24,0.83
2014-3-30,36.6,35.1,33.5,36.0,34.7,33.0,99,99,98,29.94,29.63,14,5,20,2.03
2014-3-31,35.9,32.9,31.4,33.0,31.4,29.0,99,94,83,30.03,29.71,12,4,18,0.97
2014-4-1,53.4,39.5,28.1,34.0,30.1,26.0,91,71,47,30.10,30.02,7,2,11,0.09
2014-4-2,55.0,41.3,30.6,37.0,32.0,27.0,88,71,49,30.11,30.02,6,1,11,0.00
2014-4-3,51.2,40.2,29.4,28.0,24.7,22.0,75,56,37,30.12,30.04,9,2,18,0.00
2014-4-4,44.8,36.8,31.6,33.0,28.2,23.0,96,72,54,30.13,29.87,14,4,19,0.26
2014-4-5,44.3,36.7,31.7,39.0,31.3,23.0,98,82,59,29.94,29.71,14,5,28,0.12
2014-4-6,53.8,38.9,28.6,25.0,21.6,15.0,77,54,23,30.20,29.94,12,3,19,0.00
2014-4-7,56.4,44.1,31.8,38.0,25.2,18.0,95,51,29,30.23,29.88,10,3,16,0.12
2014-4-8,59.7,47.5,38.5,55.0,44.1,32.0,99,89,62,29.87,29.30,16,4,30,0.39
2014-4-9,52.0,41.4,30.3,36.0,24.6,7.0,96,57,25,29.96,29.51,14,4,23,0.00
2014-4-10,57.5,42.2,26.3,32.0,21.7,12.0,69,47,23,30.14,29.97,14,3,22,0.00
2014-4-11,66.2,52.1,44.2,50.0,41.5,33.0,96,69,45,30.01,29.90,7,3,17,0.19
2014-4-12,64.4,50.6,38.7,43.0,36.0,28.0,98,64,26,30.20,29.96,12,3,21,0.08
2014-4-13,64.2,50.9,43.6,47.0,39.0,29.0,89,65,43,30.23,30.00,10,2,15,0.01
2014-4-14,73.3,62.7,54.6,57.0,53.6,49.0,90,74,47,30.00,29.82,14,5,26,0.00
2014-4-15,60.4,55.8,33.9,59.0,54.2,33.0,97,94,87,29.84,29.50,20,5,22,0.93
2014-4-16,37.3,30.5,23.6,32.0,22.0,16.0,98,73,47,30.59,29.72,19,5,28,0.06
2014-4-17,41.1,31.3,22.8,25.0,20.4,16.0,86,65,45,30.80,30.60,12,3,19,0.00
2014-4-18,43.9,32.7,23.8,31.0,26.8,22.0,94,80,58,30.64,30.33,8,2,13,0.00
2014-4-19,56.7,54.0,49.2,35.0,32.2,30.0,58,44,38,30.25,30.22,15,6,23,0.00
2014-4-24,41.5,41.2,40.5,26.0,25.5,25.0,56,54,53,29.94,29.94,3,2,10,0.00
2014-4-25,62.1,54.8,40.1,31.0,23.8,18.0,56,32,19,29.99,29.80,9,2,13,0.00
2014-4-26,42.4,41.0,38.5,42.0,40.2,38.0,97,97,96,29.77,29.74,6,2,7,0.53
2014-5-4,44.4,44.0,43.7,39.0,38.1,38.0,81,80,79,29.63,29.59,10,6,17,0.02
2014-5-5,44.0,44.0,43.9,38.0,38.0,38.0,80,80,80,29.63,29.63,4,4,21,0.00
2014-5-17,54.7,54.7,54.6,41.0,40.5,40.0,60,60,59,30.00,30.00,0,0,1,0.00
2014-5-23,56.7,56.6,56.4,56.0,55.3,55.0,96,95,95,29.89,29.89,4,3,5,0.00
2014-5-24,58.3,52.6,49.3,54.0,51.3,49.0,99,95,85,30.05,30.01,1,0,5,0.28
2014-5-25,68.5,67.8,67.3,57.0,56.7,56.0,70,68,66,30.04,30.02,3,2,9,0.01
2014-5-28,44.8,43.9,41.0,44.0,43.6,41.0,99,98,98,30.22,30.10,10,2,15,0.37
2014-5-29,64.4,50.3,34.3,46.0,41.1,34.0,100,75,43,30.25,30.14,6,1,11,0.01
2014-5-30,68.2,54.8,44.2,56.0,49.5,43.0,97,84,55,30.14,29.98,5,0,10,0.14
2014-5-31,61.7,52.4,42.0,56.0,49.3,41.0,99,90,63,30.30,30.04,9,1,12,0.23
2014-6-1,73.9,59.6,41.0,51.0,44.7,37.0,99,64,33,30.35,30.21,4,1,7,0.01
2014-6-2,79.7,65.2,48.3,57.0,50.6,42.0,83,62,39,30.22,29.99,5,1,10,0.00
2014-6-3,81.0,67.6,54.0,65.0,58.2,52.0,93,73,53,30.00,29.83,11,2,14,0.01
2014-6-4,66.8,60.3,53.2,63.0,58.5,53.0,98,94,85,29.85,29.74,6,1,9,0.36
2014-6-5,63.7,58.2,52.7,59.0,57.2,52.0,99,96,81,29.76,29.64,4,0,10,0.39
2014-6-6,68.2,59.5,53.3,56.0,53.6,51.0,99,82,61,29.88,29.69,11,3,16,0.00
2014-6-7,79.1,64.9,51.3,62.0,55.3,50.0,98,74,41,29.95,29.88,6,1,11,0.00
2014-6-8,82.5,68.9,53.4,62.0,56.1,51.0,97,68,34,29.95,29.85,4,0,10,0.00
2014-6-9,73.3,63.3,56.5,62.0,58.4,54.0,97,84,65,29.97,29.88,5,1,9,0.04
2014-6-10,77.5,65.9,58.4,68.0,62.0,56.0,99,88,68,30.07,29.92,7,2,16,0.01
2014-6-11,65.0,59.2,54.8,56.0,52.9,49.0,93,80,56,30.15,30.07,8,2,14,0.00
2014-6-12,62.6,57.8,53.7,61.0,55.8,49.0,99,93,80,30.14,30.03,9,2,12,0.02
2014-6-13,60.2,58.2,56.8,60.0,58.2,57.0,100,99,98,30.03,29.79,7,2,10,0.51
2014-6-14,69.5,61.6,54.2,64.0,57.6,51.0,100,87,63,29.92,29.78,8,2,14,0.01
2014-6-15,73.8,62.4,51.6,58.0,53.0,46.0,94,73,53,30.07,29.91,11,4,18,0.00
2014-6-16,78.8,65.6,49.4,57.0,50.1,43.0,91,61,32,30.14,30.01,5,1,8,0.00
2014-6-17,83.3,71.5,58.3,69.0,62.6,55.0,92,75,53,30.04,29.82,5,1,9,0.00
2014-6-18,78.9,71.7,64.8,68.0,63.8,59.0,98,78,53,29.93,29.70,11,3,18,0.24
2014-6-19,76.9,67.6,55.4,63.0,54.0,38.0,94,66,30,29.97,29.90,9,2,15,0.00
2014-6-20,69.0,60.0,47.9,49.0,44.5,39.0,93,59,34,29.97,29.89,11,2,18,0.00
2014-6-21,70.1,57.8,43.5,51.0,46.6,42.0,94,69,44,29.97,29.88,10,2,12,0.00
2014-6-22,72.9,60.9,46.3,57.0,50.6,44.0,94,71,45,30.02,29.93,5,1,8,0.00
2014-6-23,77.7,64.8,50.2,62.0,54.9,49.0,99,73,45,30.14,30.02,5,1,13,0.00
2014-6-24,77.2,66.7,55.5,62.0,57.1,52.0,94,73,56,30.14,29.98,7,2,17,0.00
2014-6-25,82.9,71.8,61.4,71.0,64.9,55.0,92,79,64,29.98,29.81,9,2,12,0.00
2014-6-26,77.2,68.5,60.4,71.0,66.5,60.0,99,93,74,29.98,29.76,9,2,15,1.08
2014-6-27,76.6,66.3,54.7,63.0,56.7,48.0,100,74,45,30.19,29.98,7,1,14,0.00
2014-6-28,81.4,68.8,53.8,63.0,55.1,47.0,98,65,35,30.26,30.19,6,1,9,0.00
2014-6-29,82.7,70.9,58.0,64.0,59.6,56.0,95,70,43,30.25,30.06,4,1,9,0.00
2014-6-30,82.5,71.4,57.4,67.0,61.9,54.0,88,73,55,30.07,29.89,6,2,12,0.00
2014-7-1,84.3,74.6,63.5,73.0,67.9,61.0,95,80,64,29.92,29.76,9,2,14,0.00
2014-7-2,88.7,74.2,67.5,78.0,70.2,66.0,98,88,67,29.90,29.77,8,2,17,0.54
2014-7-3,85.7,73.8,66.7,77.0,70.8,66.0,99,91,67,29.98,29.85,5,1,14,0.47
2014-7-4,68.4,64.4,59.4,67.0,63.6,59.0,99,97,86,29.97,29.82,8,2,14,0.88
2014-7-5,74.5,66.1,55.8,58.0,51.6,45.0,96,62,43,30.02,29.80,15,5,24,0.04
2014-7-6,78.4,68.7,57.4,60.0,54.9,48.0,81,63,45,30.01,29.85,13,2,20,0.00
2014-7-7,81.9,71.1,64.6,70.0,64.9,60.0,98,81,65,29.85,29.67,10,2,16,0.70
2014-7-8,83.9,73.5,65.4,73.0,68.9,65.0,99,86,68,29.77,29.68,6,2,15,0.04
2014-8-29,73.3,60.8,48.0,58.7,53.5,46.9,96,79,55,30.25,30.00,2,1,0,0.00
2014-8-30,72.6,63.4,54.1,61.4,58.0,53.3,99,84,57,30.27,30.10,3,1,0,0.00
2014-8-31,76.3,70.3,63.5,72.5,68.0,62.0,99,93,85,30.10,29.93,4,2,0,0.09
2014-9-1,83.3,73.9,68.2,72.6,69.7,67.3,99,88,67,29.97,29.89,2,1,0,0.00
2014-9-2,85.3,73.4,68.3,74.4,70.6,68.0,99,92,68,29.92,29.78,3,1,0,0.08
2014-9-3,77.2,69.2,59.3,61.6,60.0,57.3,97,74,53,30.08,29.89,5,2,0,0.14
2014-9-4,79.5,70.8,64.5,64.6,62.3,61.3,90,76,55,30.13,30.10,3,0,9,0.01
2014-9-5,70.6,63.4,60.4,66.4,61.6,59.5,98,94,88,30.14,30.11,1,0,9,0.00
2014-9-26,68.2,68.0,68.0,55.8,55.8,55.8,65,65,65,30.23,30.23,3,3,3,0.00
2014-10-20,52.6,50.0,48.0,38.4,37.6,36.7,68,63,56,29.98,29.97,3,2,6,0.00
2014-10-24,43.2,43.2,43.1,42.7,42.7,42.6,98,98,98,29.73,29.73,3,3,3,0.17
2014-10-28,53.2,52.0,51.2,44.4,44.0,43.5,75,74,72,30.05,30.04,0,0,0,0.00
2014-11-3,31.0,31.0,31.0,20.6,20.6,20.6,65,65,65,29.98,29.98,5,5,6,0.00
2014-11-4,44.4,41.6,38.5,31.4,30.3,29.1,70,64,56,30.14,30.12,0,0,1,0.00
2014-12-30,24.8,23.0,21.0,7.0,-1.1,-8.9,54,35,23,30.33,30.27,6,4,11,0.00